sensor_id;sensor_type;location;lat;lon;timestamp;P1;durP1;ratioP1;P2;durP2;ratioP2
20814;SDS011;10568;48.176;16.316;2023-07-29T00:00:41;2.53;;;1.60;;
20814;SDS011;10568;48.176;16.316;2023-07-29T00:03:07;1.40;;;1.20;;
20814;SDS011;10568;48.176;16.316;2023-07-29T00:05:34;2.78;;;1.42;;
20814;SDS011;10568;48.176;16.316;2023-07-29T00:07:59;2.40;;;1.23;;
20814;SDS011;10568;48.176;16.316;2023-07-29T00:10:25;2.95;;;1.23;;
20814;SDS011;10568;48.176;16.316;2023-07-29T00:12:52;2.33;;;1.70;;
20814;SDS011;10568;48.176;16.316;2023-07-29T00:15:17;2.70;;;1.50;;
20814;SDS011;10568;48.176;16.316;2023-07-29T00:17:43;3.33;;;1.52;;
20814;SDS011;10568;48.176;16.316;2023-07-29T00:20:09;2.75;;;1.65;;
20814;SDS011;10568;48.176;16.316;2023-07-29T00:22:35;1.45;;;0.98;;
20814;SDS011;10568;48.176;16.316;2023-07-29T00:25:01;2.72;;;1.20;;
20814;SDS011;10568;48.176;16.316;2023-07-29T00:27:27;2.45;;;1.52;;
20814;SDS011;10568;48.176;16.316;2023-07-29T00:29:52;1.92;;;1.52;;
20814;SDS011;10568;48.176;16.316;2023-07-29T00:32:18;2.95;;;1.27;;
20814;SDS011;10568;48.176;16.316;2023-07-29T00:34:44;1.85;;;1.52;;
20814;SDS011;10568;48.176;16.316;2023-07-29T00:37:09;3.22;;;1.48;;
20814;SDS011;10568;48.176;16.316;2023-07-29T00:39:35;2.08;;;1.25;;
20814;SDS011;10568;48.176;16.316;2023-07-29T00:42:04;4.60;;;1.65;;
20814;SDS011;10568;48.176;16.316;2023-07-29T00:44:31;1.90;;;1.33;;
20814;SDS011;10568;48.176;16.316;2023-07-29T00:46:56;1.65;;;1.23;;
20814;SDS011;10568;48.176;16.316;2023-07-29T00:49:23;1.80;;;1.33;;
20814;SDS011;10568;48.176;16.316;2023-07-29T00:51:49;1.50;;;1.20;;
20814;SDS011;10568;48.176;16.316;2023-07-29T00:54:15;2.08;;;1.42;;
20814;SDS011;10568;48.176;16.316;2023-07-29T00:56:41;2.92;;;1.48;;
20814;SDS011;10568;48.176;16.316;2023-07-29T00:59:07;1.67;;;1.40;;
20814;SDS011;10568;48.176;16.316;2023-07-29T01:01:33;4.63;;;1.50;;
20814;SDS011;10568;48.176;16.316;2023-07-29T01:03:59;1.70;;;1.20;;
20814;SDS011;10568;48.176;16.316;2023-07-29T01:17:15;2.53;;;1.48;;
20814;SDS011;10568;48.176;16.316;2023-07-29T01:19:55;2.28;;;1.52;;
20814;SDS011;10568;48.176;16.316;2023-07-29T01:22:33;3.05;;;1.83;;
20814;SDS011;10568;48.176;16.316;2023-07-29T01:25:00;1.85;;;1.30;;
20814;SDS011;10568;48.176;16.316;2023-07-29T01:27:26;2.20;;;1.80;;
20814;SDS011;10568;48.176;16.316;2023-07-29T01:29:52;2.13;;;1.50;;
20814;SDS011;10568;48.176;16.316;2023-07-29T01:32:31;2.30;;;1.52;;
20814;SDS011;10568;48.176;16.316;2023-07-29T01:35:19;2.10;;;1.30;;
20814;SDS011;10568;48.176;16.316;2023-07-29T01:37:55;2.22;;;1.58;;
20814;SDS011;10568;48.176;16.316;2023-07-29T01:40:29;2.97;;;1.70;;
20814;SDS011;10568;48.176;16.316;2023-07-29T01:42:55;3.47;;;1.67;;
20814;SDS011;10568;48.176;16.316;2023-07-29T01:45:24;3.45;;;1.55;;
20814;SDS011;10568;48.176;16.316;2023-07-29T01:47:50;2.80;;;1.33;;
20814;SDS011;10568;48.176;16.316;2023-07-29T01:50:16;2.95;;;1.50;;
20814;SDS011;10568;48.176;16.316;2023-07-29T01:52:42;2.28;;;1.60;;
20814;SDS011;10568;48.176;16.316;2023-07-29T01:55:08;5.90;;;1.67;;
20814;SDS011;10568;48.176;16.316;2023-07-29T01:57:34;4.43;;;1.63;;
20814;SDS011;10568;48.176;16.316;2023-07-29T01:59:59;2.15;;;1.70;;
20814;SDS011;10568;48.176;16.316;2023-07-29T02:02:25;1.90;;;1.48;;
20814;SDS011;10568;48.176;16.316;2023-07-29T02:04:51;3.72;;;1.52;;
20814;SDS011;10568;48.176;16.316;2023-07-29T02:07:18;2.33;;;1.42;;
20814;SDS011;10568;48.176;16.316;2023-07-29T02:09:44;3.92;;;1.75;;
20814;SDS011;10568;48.176;16.316;2023-07-29T02:12:10;2.05;;;1.52;;
20814;SDS011;10568;48.176;16.316;2023-07-29T02:14:36;2.72;;;1.83;;
20814;SDS011;10568;48.176;16.316;2023-07-29T02:17:01;2.83;;;1.70;;
20814;SDS011;10568;48.176;16.316;2023-07-29T02:19:27;2.63;;;1.60;;
20814;SDS011;10568;48.176;16.316;2023-07-29T02:21:53;2.47;;;1.75;;
20814;SDS011;10568;48.176;16.316;2023-07-29T02:24:18;2.55;;;1.63;;
20814;SDS011;10568;48.176;16.316;2023-07-29T02:26:44;1.88;;;1.52;;
20814;SDS011;10568;48.176;16.316;2023-07-29T02:29:10;2.50;;;1.63;;
20814;SDS011;10568;48.176;16.316;2023-07-29T02:31:35;3.17;;;1.63;;
20814;SDS011;10568;48.176;16.316;2023-07-29T02:34:02;1.73;;;1.30;;
20814;SDS011;10568;48.176;16.316;2023-07-29T02:36:29;1.58;;;1.30;;
20814;SDS011;10568;48.176;16.316;2023-07-29T02:38:55;2.03;;;1.77;;
20814;SDS011;10568;48.176;16.316;2023-07-29T02:41:20;2.35;;;1.38;;
20814;SDS011;10568;48.176;16.316;2023-07-29T02:43:49;1.83;;;1.17;;
20814;SDS011;10568;48.176;16.316;2023-07-29T02:46:15;1.70;;;1.38;;
20814;SDS011;10568;48.176;16.316;2023-07-29T02:48:42;1.55;;;1.35;;
20814;SDS011;10568;48.176;16.316;2023-07-29T02:51:08;2.47;;;1.40;;
20814;SDS011;10568;48.176;16.316;2023-07-29T02:53:33;3.40;;;1.83;;
20814;SDS011;10568;48.176;16.316;2023-07-29T02:56:01;2.05;;;1.20;;
20814;SDS011;10568;48.176;16.316;2023-07-29T02:58:28;2.40;;;1.40;;
20814;SDS011;10568;48.176;16.316;2023-07-29T03:01:00;1.52;;;1.10;;
20814;SDS011;10568;48.176;16.316;2023-07-29T03:03:27;1.77;;;1.38;;
20814;SDS011;10568;48.176;16.316;2023-07-29T03:06:02;2.65;;;1.25;;
20814;SDS011;10568;48.176;16.316;2023-07-29T03:08:29;1.80;;;1.20;;
20814;SDS011;10568;48.176;16.316;2023-07-29T03:10:55;2.00;;;1.10;;
20814;SDS011;10568;48.176;16.316;2023-07-29T03:13:22;1.20;;;0.95;;
20814;SDS011;10568;48.176;16.316;2023-07-29T03:15:47;1.75;;;1.02;;
20814;SDS011;10568;48.176;16.316;2023-07-29T03:18:14;1.70;;;1.20;;
20814;SDS011;10568;48.176;16.316;2023-07-29T03:20:40;1.75;;;1.17;;
20814;SDS011;10568;48.176;16.316;2023-07-29T03:23:05;2.17;;;1.10;;
20814;SDS011;10568;48.176;16.316;2023-07-29T03:25:31;2.10;;;1.40;;
20814;SDS011;10568;48.176;16.316;2023-07-29T03:27:57;1.42;;;1.15;;
20814;SDS011;10568;48.176;16.316;2023-07-29T03:30:23;1.60;;;1.10;;
20814;SDS011;10568;48.176;16.316;2023-07-29T03:32:49;1.98;;;1.00;;
20814;SDS011;10568;48.176;16.316;2023-07-29T03:35:15;1.95;;;1.10;;
20814;SDS011;10568;48.176;16.316;2023-07-29T03:37:41;1.52;;;1.23;;
20814;SDS011;10568;48.176;16.316;2023-07-29T03:40:07;1.42;;;1.10;;
20814;SDS011;10568;48.176;16.316;2023-07-29T03:42:34;2.15;;;1.50;;
20814;SDS011;10568;48.176;16.316;2023-07-29T03:45:00;1.80;;;1.40;;
20814;SDS011;10568;48.176;16.316;2023-07-29T03:47:26;1.85;;;1.25;;
20814;SDS011;10568;48.176;16.316;2023-07-29T03:49:52;1.98;;;1.27;;
20814;SDS011;10568;48.176;16.316;2023-07-29T03:52:18;1.95;;;1.02;;
20814;SDS011;10568;48.176;16.316;2023-07-29T03:54:44;2.35;;;1.30;;
20814;SDS011;10568;48.176;16.316;2023-07-29T03:57:09;1.67;;;1.23;;
20814;SDS011;10568;48.176;16.316;2023-07-29T03:59:35;1.23;;;1.10;;
20814;SDS011;10568;48.176;16.316;2023-07-29T04:02:00;1.40;;;1.10;;
20814;SDS011;10568;48.176;16.316;2023-07-29T04:04:32;2.15;;;1.13;;
20814;SDS011;10568;48.176;16.316;2023-07-29T04:06:58;1.75;;;0.90;;
20814;SDS011;10568;48.176;16.316;2023-07-29T04:09:23;2.75;;;0.98;;
20814;SDS011;10568;48.176;16.316;2023-07-29T04:11:49;1.90;;;1.08;;
20814;SDS011;10568;48.176;16.316;2023-07-29T04:14:15;1.42;;;0.90;;
20814;SDS011;10568;48.176;16.316;2023-07-29T04:16:41;1.42;;;1.02;;
20814;SDS011;10568;48.176;16.316;2023-07-29T04:19:07;1.67;;;0.80;;
20814;SDS011;10568;48.176;16.316;2023-07-29T04:21:32;1.70;;;1.00;;
20814;SDS011;10568;48.176;16.316;2023-07-29T04:23:58;1.65;;;1.00;;
20814;SDS011;10568;48.176;16.316;2023-07-29T04:26:24;1.55;;;1.08;;
20814;SDS011;10568;48.176;16.316;2023-07-29T04:28:49;1.45;;;0.93;;
20814;SDS011;10568;48.176;16.316;2023-07-29T04:31:21;1.77;;;1.00;;
20814;SDS011;10568;48.176;16.316;2023-07-29T04:33:46;1.98;;;1.20;;
20814;SDS011;10568;48.176;16.316;2023-07-29T04:36:12;2.13;;;1.23;;
20814;SDS011;10568;48.176;16.316;2023-07-29T04:38:38;2.05;;;1.30;;
20814;SDS011;10568;48.176;16.316;2023-07-29T04:41:03;2.05;;;1.20;;
20814;SDS011;10568;48.176;16.316;2023-07-29T04:43:32;1.65;;;1.10;;
20814;SDS011;10568;48.176;16.316;2023-07-29T04:45:58;2.65;;;1.25;;
20814;SDS011;10568;48.176;16.316;2023-07-29T04:48:23;2.38;;;1.25;;
20814;SDS011;10568;48.176;16.316;2023-07-29T04:50:49;1.38;;;0.90;;
20814;SDS011;10568;48.176;16.316;2023-07-29T04:53:15;1.52;;;0.85;;
20814;SDS011;10568;48.176;16.316;2023-07-29T04:55:43;1.63;;;0.90;;
20814;SDS011;10568;48.176;16.316;2023-07-29T04:58:09;1.23;;;0.95;;
20814;SDS011;10568;48.176;16.316;2023-07-29T05:00:35;2.42;;;1.30;;
20814;SDS011;10568;48.176;16.316;2023-07-29T05:06:16;1.20;;;0.90;;
20814;SDS011;10568;48.176;16.316;2023-07-29T05:08:42;2.72;;;1.15;;
20814;SDS011;10568;48.176;16.316;2023-07-29T05:11:08;1.42;;;0.88;;
20814;SDS011;10568;48.176;16.316;2023-07-29T05:13:33;1.50;;;1.13;;
20814;SDS011;10568;48.176;16.316;2023-07-29T05:15:59;1.67;;;0.85;;
20814;SDS011;10568;48.176;16.316;2023-07-29T05:18:25;1.85;;;1.10;;
20814;SDS011;10568;48.176;16.316;2023-07-29T05:20:50;3.60;;;0.90;;
20814;SDS011;10568;48.176;16.316;2023-07-29T05:23:16;1.90;;;1.08;;
20814;SDS011;10568;48.176;16.316;2023-07-29T05:25:41;1.45;;;0.95;;
20814;SDS011;10568;48.176;16.316;2023-07-29T05:28:07;2.10;;;1.17;;
20814;SDS011;10568;48.176;16.316;2023-07-29T05:30:33;1.65;;;1.02;;
20814;SDS011;10568;48.176;16.316;2023-07-29T05:33:02;1.65;;;1.00;;
20814;SDS011;10568;48.176;16.316;2023-07-29T05:35:29;3.97;;;1.05;;
20814;SDS011;10568;48.176;16.316;2023-07-29T05:37:55;2.10;;;1.30;;
20814;SDS011;10568;48.176;16.316;2023-07-29T05:40:20;2.50;;;0.88;;
20814;SDS011;10568;48.176;16.316;2023-07-29T05:42:46;1.80;;;1.10;;
20814;SDS011;10568;48.176;16.316;2023-07-29T05:45:12;1.80;;;0.88;;
20814;SDS011;10568;48.176;16.316;2023-07-29T05:47:38;1.17;;;0.80;;
20814;SDS011;10568;48.176;16.316;2023-07-29T05:50:04;1.55;;;0.90;;
20814;SDS011;10568;48.176;16.316;2023-07-29T05:52:31;0.88;;;0.50;;
20814;SDS011;10568;48.176;16.316;2023-07-29T05:54:57;1.85;;;1.05;;
20814;SDS011;10568;48.176;16.316;2023-07-29T05:57:22;1.30;;;0.90;;
20814;SDS011;10568;48.176;16.316;2023-07-29T05:59:48;0.93;;;0.70;;
20814;SDS011;10568;48.176;16.316;2023-07-29T06:02:14;1.95;;;1.08;;
20814;SDS011;10568;48.176;16.316;2023-07-29T06:04:39;1.40;;;0.90;;
20814;SDS011;10568;48.176;16.316;2023-07-29T06:07:05;1.15;;;0.82;;
20814;SDS011;10568;48.176;16.316;2023-07-29T06:09:31;1.55;;;0.80;;
20814;SDS011;10568;48.176;16.316;2023-07-29T06:11:57;1.08;;;0.77;;
20814;SDS011;10568;48.176;16.316;2023-07-29T06:14:23;1.40;;;0.65;;
20814;SDS011;10568;48.176;16.316;2023-07-29T06:16:49;1.27;;;0.88;;
20814;SDS011;10568;48.176;16.316;2023-07-29T06:19:18;1.17;;;0.70;;
20814;SDS011;10568;48.176;16.316;2023-07-29T06:21:44;1.30;;;0.70;;
20814;SDS011;10568;48.176;16.316;2023-07-29T06:24:10;1.90;;;0.70;;
20814;SDS011;10568;48.176;16.316;2023-07-29T06:26:36;1.55;;;0.77;;
20814;SDS011;10568;48.176;16.316;2023-07-29T06:29:02;0.95;;;0.80;;
20814;SDS011;10568;48.176;16.316;2023-07-29T06:31:27;1.00;;;0.73;;
20814;SDS011;10568;48.176;16.316;2023-07-29T06:33:54;1.42;;;0.70;;
20814;SDS011;10568;48.176;16.316;2023-07-29T06:36:20;1.80;;;0.80;;
20814;SDS011;10568;48.176;16.316;2023-07-29T06:38:46;1.08;;;0.77;;
20814;SDS011;10568;48.176;16.316;2023-07-29T06:41:11;1.10;;;0.70;;
20814;SDS011;10568;48.176;16.316;2023-07-29T06:43:37;1.77;;;0.68;;
20814;SDS011;10568;48.176;16.316;2023-07-29T06:46:03;1.55;;;0.60;;
20814;SDS011;10568;48.176;16.316;2023-07-29T06:48:28;1.42;;;0.77;;
20814;SDS011;10568;48.176;16.316;2023-07-29T06:50:54;1.45;;;0.80;;
20814;SDS011;10568;48.176;16.316;2023-07-29T06:53:20;1.42;;;0.77;;
20814;SDS011;10568;48.176;16.316;2023-07-29T06:55:46;1.25;;;0.73;;
20814;SDS011;10568;48.176;16.316;2023-07-29T06:58:12;0.60;;;0.60;;
20814;SDS011;10568;48.176;16.316;2023-07-29T07:00:38;1.20;;;0.98;;
20814;SDS011;10568;48.176;16.316;2023-07-29T07:03:03;1.35;;;0.88;;
20814;SDS011;10568;48.176;16.316;2023-07-29T07:05:29;1.00;;;0.70;;
20814;SDS011;10568;48.176;16.316;2023-07-29T07:07:55;1.35;;;0.63;;
20814;SDS011;10568;48.176;16.316;2023-07-29T07:10:20;1.23;;;0.73;;
20814;SDS011;10568;48.176;16.316;2023-07-29T07:12:46;1.13;;;0.73;;
20814;SDS011;10568;48.176;16.316;2023-07-29T07:15:12;1.00;;;0.57;;
20814;SDS011;10568;48.176;16.316;2023-07-29T07:17:38;1.08;;;0.80;;
20814;SDS011;10568;48.176;16.316;2023-07-29T07:20:03;1.05;;;0.80;;
20814;SDS011;10568;48.176;16.316;2023-07-29T07:22:30;0.95;;;0.60;;
20814;SDS011;10568;48.176;16.316;2023-07-29T07:24:55;1.17;;;0.80;;
20814;SDS011;10568;48.176;16.316;2023-07-29T07:27:21;1.10;;;0.88;;
20814;SDS011;10568;48.176;16.316;2023-07-29T07:29:47;1.23;;;0.70;;
20814;SDS011;10568;48.176;16.316;2023-07-29T07:32:12;1.10;;;0.85;;
20814;SDS011;10568;48.176;16.316;2023-07-29T07:34:38;1.38;;;0.90;;
20814;SDS011;10568;48.176;16.316;2023-07-29T07:37:04;0.93;;;0.70;;
20814;SDS011;10568;48.176;16.316;2023-07-29T07:39:30;1.55;;;0.70;;
20814;SDS011;10568;48.176;16.316;2023-07-29T07:41:56;1.65;;;0.70;;
20814;SDS011;10568;48.176;16.316;2023-07-29T07:44:22;1.92;;;0.80;;
20814;SDS011;10568;48.176;16.316;2023-07-29T07:46:48;1.30;;;0.82;;
20814;SDS011;10568;48.176;16.316;2023-07-29T07:49:13;1.42;;;0.73;;
20814;SDS011;10568;48.176;16.316;2023-07-29T07:51:39;1.98;;;0.73;;
20814;SDS011;10568;48.176;16.316;2023-07-29T07:54:05;1.15;;;0.63;;
20814;SDS011;10568;48.176;16.316;2023-07-29T07:56:31;1.13;;;0.68;;
20814;SDS011;10568;48.176;16.316;2023-07-29T07:58:57;1.17;;;0.90;;
20814;SDS011;10568;48.176;16.316;2023-07-29T08:01:22;0.88;;;0.70;;
20814;SDS011;10568;48.176;16.316;2023-07-29T08:03:48;2.17;;;0.80;;
20814;SDS011;10568;48.176;16.316;2023-07-29T08:06:13;1.08;;;0.77;;
20814;SDS011;10568;48.176;16.316;2023-07-29T08:08:39;2.17;;;0.75;;
20814;SDS011;10568;48.176;16.316;2023-07-29T08:11:05;1.40;;;0.60;;
20814;SDS011;10568;48.176;16.316;2023-07-29T08:13:30;0.88;;;0.50;;
20814;SDS011;10568;48.176;16.316;2023-07-29T08:15:56;1.00;;;0.70;;
20814;SDS011;10568;48.176;16.316;2023-07-29T08:18:22;1.25;;;0.68;;
20814;SDS011;10568;48.176;16.316;2023-07-29T08:20:51;0.50;;;0.45;;
20814;SDS011;10568;48.176;16.316;2023-07-29T08:23:27;0.90;;;0.57;;
20814;SDS011;10568;48.176;16.316;2023-07-29T08:25:56;1.30;;;0.70;;
20814;SDS011;10568;48.176;16.316;2023-07-29T08:28:27;0.95;;;0.68;;
20814;SDS011;10568;48.176;16.316;2023-07-29T08:30:54;2.97;;;0.60;;
20814;SDS011;10568;48.176;16.316;2023-07-29T08:33:19;0.88;;;0.55;;
20814;SDS011;10568;48.176;16.316;2023-07-29T08:35:45;1.10;;;0.60;;
20814;SDS011;10568;48.176;16.316;2023-07-29T08:38:11;0.80;;;0.50;;
20814;SDS011;10568;48.176;16.316;2023-07-29T08:40:37;0.77;;;0.65;;
20814;SDS011;10568;48.176;16.316;2023-07-29T08:43:07;0.80;;;0.60;;
20814;SDS011;10568;48.176;16.316;2023-07-29T08:45:36;1.00;;;0.70;;
20814;SDS011;10568;48.176;16.316;2023-07-29T08:48:04;2.25;;;0.70;;
20814;SDS011;10568;48.176;16.316;2023-07-29T08:50:33;0.90;;;0.60;;
20814;SDS011;10568;48.176;16.316;2023-07-29T08:53:02;0.98;;;0.65;;
20814;SDS011;10568;48.176;16.316;2023-07-29T08:55:29;0.82;;;0.70;;
20814;SDS011;10568;48.176;16.316;2023-07-29T08:57:57;0.60;;;0.50;;
20814;SDS011;10568;48.176;16.316;2023-07-29T09:00:27;0.60;;;0.57;;
20814;SDS011;10568;48.176;16.316;2023-07-29T09:02:54;2.47;;;0.70;;
20814;SDS011;10568;48.176;16.316;2023-07-29T09:05:23;1.05;;;0.57;;
20814;SDS011;10568;48.176;16.316;2023-07-29T09:07:49;0.98;;;0.50;;
20814;SDS011;10568;48.176;16.316;2023-07-29T09:10:21;0.57;;;0.57;;
20814;SDS011;10568;48.176;16.316;2023-07-29T09:12:48;0.98;;;0.60;;
20814;SDS011;10568;48.176;16.316;2023-07-29T09:15:25;0.70;;;0.52;;
20814;SDS011;10568;48.176;16.316;2023-07-29T09:17:52;0.60;;;0.50;;
20814;SDS011;10568;48.176;16.316;2023-07-29T09:20:23;1.42;;;0.77;;
20814;SDS011;10568;48.176;16.316;2023-07-29T09:22:50;0.75;;;0.55;;
20814;SDS011;10568;48.176;16.316;2023-07-29T09:25:15;0.60;;;0.60;;
20814;SDS011;10568;48.176;16.316;2023-07-29T09:27:42;1.02;;;0.77;;
20814;SDS011;10568;48.176;16.316;2023-07-29T09:30:15;0.80;;;0.70;;
20814;SDS011;10568;48.176;16.316;2023-07-29T09:32:41;0.80;;;0.60;;
20814;SDS011;10568;48.176;16.316;2023-07-29T09:35:10;0.77;;;0.60;;
20814;SDS011;10568;48.176;16.316;2023-07-29T09:37:40;0.63;;;0.60;;
20814;SDS011;10568;48.176;16.316;2023-07-29T09:40:24;1.08;;;0.60;;
20814;SDS011;10568;48.176;16.316;2023-07-29T09:42:54;2.40;;;0.50;;
20814;SDS011;10568;48.176;16.316;2023-07-29T09:45:21;0.95;;;0.63;;
20814;SDS011;10568;48.176;16.316;2023-07-29T09:47:47;0.93;;;0.60;;
20814;SDS011;10568;48.176;16.316;2023-07-29T09:50:14;0.73;;;0.60;;
20814;SDS011;10568;48.176;16.316;2023-07-29T09:52:39;1.52;;;0.70;;
20814;SDS011;10568;48.176;16.316;2023-07-29T09:55:06;0.85;;;0.63;;
20814;SDS011;10568;48.176;16.316;2023-07-29T09:57:33;0.75;;;0.50;;
20814;SDS011;10568;48.176;16.316;2023-07-29T09:59:59;1.13;;;0.50;;
20814;SDS011;10568;48.176;16.316;2023-07-29T10:02:25;0.73;;;0.55;;
20814;SDS011;10568;48.176;16.316;2023-07-29T10:04:53;0.47;;;0.40;;
20814;SDS011;10568;48.176;16.316;2023-07-29T10:07:21;0.52;;;0.45;;
20814;SDS011;10568;48.176;16.316;2023-07-29T10:09:47;0.93;;;0.60;;
20814;SDS011;10568;48.176;16.316;2023-07-29T10:12:14;0.93;;;0.68;;
20814;SDS011;10568;48.176;16.316;2023-07-29T10:14:40;0.88;;;0.50;;
20814;SDS011;10568;48.176;16.316;2023-07-29T10:17:07;0.75;;;0.50;;
20814;SDS011;10568;48.176;16.316;2023-07-29T10:19:34;1.13;;;0.60;;
20814;SDS011;10568;48.176;16.316;2023-07-29T10:22:01;0.63;;;0.45;;
20814;SDS011;10568;48.176;16.316;2023-07-29T10:24:32;0.43;;;0.40;;
20814;SDS011;10568;48.176;16.316;2023-07-29T10:26:59;1.63;;;0.50;;
20814;SDS011;10568;48.176;16.316;2023-07-29T10:29:32;1.00;;;0.40;;
20814;SDS011;10568;48.176;16.316;2023-07-29T10:32:03;0.43;;;0.38;;
20814;SDS011;10568;48.176;16.316;2023-07-29T10:34:31;0.70;;;0.47;;
20814;SDS011;10568;48.176;16.316;2023-07-29T10:36:59;1.00;;;0.55;;
20814;SDS011;10568;48.176;16.316;2023-07-29T10:39:25;0.80;;;0.70;;
20814;SDS011;10568;48.176;16.316;2023-07-29T10:41:54;1.70;;;0.50;;
20814;SDS011;10568;48.176;16.316;2023-07-29T10:49:46;1.42;;;0.50;;
20814;SDS011;10568;48.176;16.316;2023-07-29T10:52:15;0.57;;;0.57;;
20814;SDS011;10568;48.176;16.316;2023-07-29T10:54:52;0.38;;;0.30;;
20814;SDS011;10568;48.176;16.316;2023-07-29T10:57:34;1.20;;;0.60;;
20814;SDS011;10568;48.176;16.316;2023-07-29T11:00:01;0.95;;;0.57;;
20814;SDS011;10568;48.176;16.316;2023-07-29T11:02:38;0.73;;;0.60;;
20814;SDS011;10568;48.176;16.316;2023-07-29T11:05:07;0.63;;;0.50;;
20814;SDS011;10568;48.176;16.316;2023-07-29T11:07:45;0.60;;;0.38;;
20814;SDS011;10568;48.176;16.316;2023-07-29T11:10:15;0.85;;;0.50;;
20814;SDS011;10568;48.176;16.316;2023-07-29T11:15:19;0.63;;;0.47;;
20814;SDS011;10568;48.176;16.316;2023-07-29T11:20:26;0.50;;;0.40;;
20814;SDS011;10568;48.176;16.316;2023-07-29T11:23:01;0.38;;;0.38;;
20814;SDS011;10568;48.176;16.316;2023-07-29T11:25:29;0.70;;;0.50;;
20814;SDS011;10568;48.176;16.316;2023-07-29T11:27:57;1.48;;;0.45;;
20814;SDS011;10568;48.176;16.316;2023-07-29T11:30:24;1.05;;;0.57;;
20814;SDS011;10568;48.176;16.316;2023-07-29T11:32:54;0.73;;;0.60;;
20814;SDS011;10568;48.176;16.316;2023-07-29T11:35:21;0.77;;;0.60;;
20814;SDS011;10568;48.176;16.316;2023-07-29T11:37:51;1.15;;;0.63;;
20814;SDS011;10568;48.176;16.316;2023-07-29T11:40:18;0.45;;;0.40;;
20814;SDS011;10568;48.176;16.316;2023-07-29T11:42:48;0.73;;;0.60;;
20814;SDS011;10568;48.176;16.316;2023-07-29T11:45:16;0.93;;;0.63;;
20814;SDS011;10568;48.176;16.316;2023-07-29T11:47:52;0.98;;;0.55;;
20814;SDS011;10568;48.176;16.316;2023-07-29T11:50:18;0.80;;;0.60;;
20814;SDS011;10568;48.176;16.316;2023-07-29T11:52:44;0.50;;;0.40;;
20814;SDS011;10568;48.176;16.316;2023-07-29T11:55:11;0.52;;;0.50;;
20814;SDS011;10568;48.176;16.316;2023-07-29T11:57:39;1.13;;;0.50;;
20814;SDS011;10568;48.176;16.316;2023-07-29T12:00:08;0.75;;;0.43;;
20814;SDS011;10568;48.176;16.316;2023-07-29T12:02:42;0.50;;;0.40;;
20814;SDS011;10568;48.176;16.316;2023-07-29T12:05:11;0.50;;;0.50;;
20814;SDS011;10568;48.176;16.316;2023-07-29T12:07:39;1.08;;;0.60;;
20814;SDS011;10568;48.176;16.316;2023-07-29T12:10:06;0.80;;;0.65;;
20814;SDS011;10568;48.176;16.316;2023-07-29T12:12:32;2.38;;;0.60;;
20814;SDS011;10568;48.176;16.316;2023-07-29T12:14:58;1.15;;;0.73;;
20814;SDS011;10568;48.176;16.316;2023-07-29T12:17:23;0.80;;;0.60;;
20814;SDS011;10568;48.176;16.316;2023-07-29T12:19:49;0.47;;;0.47;;
20814;SDS011;10568;48.176;16.316;2023-07-29T12:22:19;0.65;;;0.47;;
20814;SDS011;10568;48.176;16.316;2023-07-29T12:24:45;1.48;;;0.80;;
20814;SDS011;10568;48.176;16.316;2023-07-29T12:27:17;0.63;;;0.60;;
20814;SDS011;10568;48.176;16.316;2023-07-29T12:29:43;0.90;;;0.70;;
20814;SDS011;10568;48.176;16.316;2023-07-29T12:32:09;1.02;;;0.70;;
20814;SDS011;10568;48.176;16.316;2023-07-29T12:34:36;3.05;;;0.90;;
20814;SDS011;10568;48.176;16.316;2023-07-29T12:37:04;1.52;;;0.68;;
20814;SDS011;10568;48.176;16.316;2023-07-29T12:39:31;1.63;;;0.80;;
20814;SDS011;10568;48.176;16.316;2023-07-29T12:41:59;1.42;;;0.85;;
20814;SDS011;10568;48.176;16.316;2023-07-29T12:44:28;1.63;;;0.88;;
20814;SDS011;10568;48.176;16.316;2023-07-29T12:46:56;1.92;;;0.80;;
20814;SDS011;10568;48.176;16.316;2023-07-29T12:49:21;1.30;;;0.90;;
20814;SDS011;10568;48.176;16.316;2023-07-29T12:51:47;0.95;;;0.85;;
20814;SDS011;10568;48.176;16.316;2023-07-29T12:54:13;2.50;;;0.90;;
20814;SDS011;10568;48.176;16.316;2023-07-29T12:56:39;1.60;;;0.65;;
20814;SDS011;10568;48.176;16.316;2023-07-29T12:59:05;0.70;;;0.55;;
20814;SDS011;10568;48.176;16.316;2023-07-29T13:01:31;0.75;;;0.50;;
20814;SDS011;10568;48.176;16.316;2023-07-29T13:03:57;2.13;;;0.70;;
20814;SDS011;10568;48.176;16.316;2023-07-29T13:06:23;1.00;;;0.60;;
20814;SDS011;10568;48.176;16.316;2023-07-29T13:08:48;0.63;;;0.50;;
20814;SDS011;10568;48.176;16.316;2023-07-29T13:11:14;0.90;;;0.70;;
20814;SDS011;10568;48.176;16.316;2023-07-29T13:13:41;2.75;;;0.68;;
20814;SDS011;10568;48.176;16.316;2023-07-29T13:16:07;3.17;;;0.60;;
20814;SDS011;10568;48.176;16.316;2023-07-29T13:18:33;0.40;;;0.40;;
20814;SDS011;10568;48.176;16.316;2023-07-29T13:20:59;1.40;;;0.88;;
20814;SDS011;10568;48.176;16.316;2023-07-29T13:23:27;0.60;;;0.50;;
20814;SDS011;10568;48.176;16.316;2023-07-29T13:25:54;0.70;;;0.52;;
20814;SDS011;10568;48.176;16.316;2023-07-29T13:28:20;0.90;;;0.70;;
20814;SDS011;10568;48.176;16.316;2023-07-29T13:30:46;1.25;;;0.68;;
20814;SDS011;10568;48.176;16.316;2023-07-29T13:33:12;2.42;;;0.70;;
20814;SDS011;10568;48.176;16.316;2023-07-29T13:35:38;1.45;;;0.75;;
20814;SDS011;10568;48.176;16.316;2023-07-29T13:38:03;2.17;;;0.90;;
20814;SDS011;10568;48.176;16.316;2023-07-29T13:40:29;2.72;;;0.88;;
20814;SDS011;10568;48.176;16.316;2023-07-29T13:42:55;0.80;;;0.65;;
20814;SDS011;10568;48.176;16.316;2023-07-29T13:45:21;0.70;;;0.63;;
20814;SDS011;10568;48.176;16.316;2023-07-29T13:47:47;1.60;;;1.00;;
20814;SDS011;10568;48.176;16.316;2023-07-29T13:50:13;2.03;;;0.80;;
20814;SDS011;10568;48.176;16.316;2023-07-29T13:52:40;2.22;;;1.17;;
20814;SDS011;10568;48.176;16.316;2023-07-29T13:55:05;1.00;;;0.80;;
20814;SDS011;10568;48.176;16.316;2023-07-29T13:57:31;1.52;;;0.80;;
20814;SDS011;10568;48.176;16.316;2023-07-29T13:59:58;0.82;;;0.80;;
20814;SDS011;10568;48.176;16.316;2023-07-29T14:02:24;1.02;;;0.70;;
20814;SDS011;10568;48.176;16.316;2023-07-29T14:04:51;2.55;;;0.90;;
20814;SDS011;10568;48.176;16.316;2023-07-29T14:07:35;1.55;;;0.85;;
20814;SDS011;10568;48.176;16.316;2023-07-29T14:10:01;1.35;;;0.95;;
20814;SDS011;10568;48.176;16.316;2023-07-29T14:12:27;1.75;;;0.90;;
20814;SDS011;10568;48.176;16.316;2023-07-29T14:14:53;1.08;;;0.80;;
20814;SDS011;10568;48.176;16.316;2023-07-29T14:17:18;1.23;;;0.90;;
20814;SDS011;10568;48.176;16.316;2023-07-29T14:19:44;1.10;;;0.80;;
20814;SDS011;10568;48.176;16.316;2023-07-29T14:22:10;1.38;;;0.88;;
20814;SDS011;10568;48.176;16.316;2023-07-29T14:24:35;0.88;;;0.80;;
20814;SDS011;10568;48.176;16.316;2023-07-29T14:27:02;0.95;;;0.75;;
20814;SDS011;10568;48.176;16.316;2023-07-29T14:29:28;1.13;;;0.70;;
20814;SDS011;10568;48.176;16.316;2023-07-29T14:31:54;1.30;;;0.98;;
20814;SDS011;10568;48.176;16.316;2023-07-29T14:34:19;1.77;;;1.00;;
20814;SDS011;10568;48.176;16.316;2023-07-29T14:36:45;1.60;;;0.98;;
20814;SDS011;10568;48.176;16.316;2023-07-29T14:39:11;1.90;;;0.88;;
20814;SDS011;10568;48.176;16.316;2023-07-29T14:41:36;1.08;;;0.80;;
20814;SDS011;10568;48.176;16.316;2023-07-29T14:44:02;1.90;;;1.10;;
20814;SDS011;10568;48.176;16.316;2023-07-29T14:46:28;1.35;;;1.20;;
20814;SDS011;10568;48.176;16.316;2023-07-29T14:48:54;1.27;;;1.00;;
20814;SDS011;10568;48.176;16.316;2023-07-29T14:51:20;2.38;;;0.90;;
20814;SDS011;10568;48.176;16.316;2023-07-29T14:53:45;1.92;;;0.75;;
20814;SDS011;10568;48.176;16.316;2023-07-29T14:56:11;1.83;;;1.00;;